Time;durP1;ratioP1;P1;durP2;ratioP2;P2;SDS_P1;SDS_P2;PMS_P1;PMS_P2;Temp;Humidity;BMP_temperature;BMP_pressure;BME280_temperature;BME280_humidity;BME280_pressure;Samples;Min_cycle;Max_cycle;Signal;HPM_P1;HPM_P2
2022/11/22 00:00:06;;;;;;;14.07;5.68;;;;;;;6.18;100.00;99096.47;5031616;28;20272;-69
2022/11/22 00:02:33;;;;;;;13.05;5.53;;;;;;;6.19;100.00;99093.06;5032304;28;20235;-69
2022/11/22 00:04:58;;;;;;;11.48;5.43;;;;;;;6.21;100.00;99101.69;5029558;28;20017;-70
2022/11/22 00:07:23;;;;;;;15.18;5.75;;;;;;;6.21;100.00;99102.59;5038559;28;20025;-70
2022/11/22 00:09:49;;;;;;;11.82;5.20;;;;;;;6.22;100.00;99095.69;5026698;28;20040;-70
2022/11/22 00:12:14;;;;;;;10.98;5.22;;;;;;;6.24;100.00;99099.13;5042273;28;20337;-69
2022/11/22 00:14:39;;;;;;;14.07;5.30;;;;;;;6.25;100.00;99087.97;5042339;28;20021;-70
2022/11/22 00:17:05;;;;;;;12.48;5.70;;;;;;;6.26;100.00;99093.16;5039906;28;20270;-70
2022/11/22 00:19:30;;;;;;;14.07;5.18;;;;;;;6.29;100.00;99091.47;5032699;28;20021;-70
2022/11/22 00:21:55;;;;;;;12.23;6.00;;;;;;;6.29;100.00;99083.72;5040375;28;20032;-70
2022/11/22 00:24:20;;;;;;;13.80;5.78;;;;;;;6.29;100.00;99094.91;5033822;28;20084;-70
2022/11/22 00:26:46;;;;;;;10.07;5.28;;;;;;;6.30;100.00;99096.66;5040635;28;21482;-70
2022/11/22 00:29:12;;;;;;;11.75;5.40;;;;;;;6.32;100.00;99091.50;5037225;28;20235;-70
2022/11/22 00:31:38;;;;;;;11.60;5.35;;;;;;;6.33;100.00;99088.94;5044720;28;20206;-70
2022/11/22 00:34:03;;;;;;;12.75;5.40;;;;;;;6.33;100.00;99088.94;5033316;28;20032;-70
2022/11/22 00:36:28;;;;;;;14.60;6.07;;;;;;;6.34;100.00;99089.78;5037268;28;20045;-70
2022/11/22 00:38:54;;;;;;;12.18;5.22;;;;;;;6.33;100.00;99091.53;5037515;28;20028;-70
2022/11/22 00:41:19;;;;;;;10.60;5.13;;;;;;;6.34;100.00;99094.97;5041013;28;20300;-70
2022/11/22 00:43:44;;;;;;;11.80;5.72;;;;;;;6.33;100.00;99094.09;5025226;28;20104;-69
2022/11/22 00:46:09;;;;;;;12.23;5.28;;;;;;;6.33;100.00;99090.63;5035692;28;20021;-70
2022/11/22 00:48:35;;;;;;;10.55;5.35;;;;;;;6.30;100.00;99090.59;5034734;28;20033;-70
2022/11/22 00:51:00;;;;;;;11.10;4.90;;;;;;;6.30;100.00;99090.59;5019581;28;20085;-69
2022/11/22 00:53:25;;;;;;;15.25;5.20;;;;;;;6.28;100.00;99092.31;5032762;28;20026;-70
2022/11/22 00:55:50;;;;;;;12.25;5.40;;;;;;;6.25;100.00;99093.97;5036670;28;20278;-69
2022/11/22 00:58:16;;;;;;;13.05;4.85;;;;;;;6.23;100.00;99089.66;5028382;28;20264;-66
2022/11/22 01:00:41;;;;;;;11.57;4.80;;;;;;;6.20;100.00;99087.91;5030569;28;20087;-67
2022/11/22 01:03:10;;;;;;;11.57;5.03;;;;;;;6.18;100.00;99083.56;5032453;28;20037;-66
2022/11/22 01:05:36;;;;;;;10.85;4.47;;;;;;;6.15;100.00;99079.22;5033669;28;20056;-66
2022/11/22 01:08:01;;;;;;;13.23;5.25;;;;;;;6.13;100.00;99086.09;5031607;28;20164;-66
2022/11/22 01:10:26;;;;;;;16.40;4.85;;;;;;;6.11;100.00;99086.91;5025962;28;20025;-66
2022/11/22 01:12:52;;;;;;;9.95;4.30;;;;;;;6.07;100.00;99089.47;5032782;28;20049;-66
2022/11/22 01:15:17;;;;;;;10.27;4.15;;;;;;;6.05;100.00;99091.16;5028076;28;20033;-66
2022/11/22 01:17:42;;;;;;;11.25;4.82;;;;;;;6.01;100.00;99091.97;5028734;28;20283;-66
2022/11/22 01:20:08;;;;;;;9.43;4.22;;;;;;;5.99;100.00;99098.81;5027218;28;20040;-66
2022/11/22 01:22:33;;;;;;;11.95;4.63;;;;;;;5.98;100.00;99098.81;5035268;28;20059;-66
2022/11/22 01:24:59;;;;;;;11.13;4.75;;;;;;;5.95;100.00;99103.91;5043040;28;20284;-66
2022/11/22 01:27:24;;;;;;;12.55;4.28;;;;;;;5.93;100.00;99103.88;5027131;28;20036;-69
2022/11/22 01:29:49;;;;;;;10.05;3.90;;;;;;;5.91;100.00;99103.00;5039733;28;20217;-69
2022/11/22 01:32:14;;;;;;;10.10;3.88;;;;;;;5.89;100.00;99094.34;5029257;28;20029;-70
2022/11/22 01:34:40;;;;;;;9.88;4.00;;;;;;;5.86;100.00;99090.00;5038624;28;20032;-69
2022/11/22 01:37:05;;;;;;;10.07;3.80;;;;;;;5.86;100.00;99104.63;5032656;28;20164;-70
2022/11/22 01:39:31;;;;;;;9.73;3.40;;;;;;;5.83;100.00;99102.00;5035982;28;20010;-69
2022/11/22 01:41:56;;;;;;;10.35;3.40;;;;;;;5.79;100.00;99101.09;5036909;28;20261;-69
2022/11/22 01:44:27;;;;;;;12.98;3.78;;;;;;;5.78;100.00;99112.28;5037062;28;20041;-70
2022/11/22 01:46:59;;;;;;;12.82;3.55;;;;;;;5.77;100.00;99113.13;5039362;28;20045;-69
2022/11/22 01:49:26;;;;;;;10.93;3.35;;;;;;;5.75;100.00;99122.59;5041837;28;20028;-69
2022/11/22 01:51:56;;;;;;;14.38;3.30;;;;;;;5.74;100.00;99121.69;5034257;28;20023;-69
2022/11/22 01:54:24;;;;;;;11.60;3.17;;;;;;;5.74;100.00;99115.66;5035139;28;20048;-70
2022/11/22 01:56:55;;;;;;;12.63;2.88;;;;;;;5.72;100.00;99119.94;5044827;28;20029;-66
2022/11/22 01:59:25;;;;;;;12.35;3.90;;;;;;;5.73;100.00;99126.84;5037185;28;20532;-66
2022/11/22 02:01:52;;;;;;;10.57;3.15;;;;;;;5.72;100.00;99128.56;5029125;28;20096;-66
2022/11/22 02:04:18;;;;;;;9.93;3.00;;;;;;;5.71;100.00;99126.81;5030757;28;20043;-66
2022/11/22 02:06:57;;;;;;;10.60;3.38;;;;;;;5.71;100.00;99120.78;5036663;28;20057;-66
2022/11/22 02:09:23;;;;;;;11.45;3.13;;;;;;;5.71;100.00;99125.97;5040048;28;20041;-66
2022/11/22 02:11:51;;;;;;;11.05;2.72;;;;;;;5.71;100.00;99131.13;5027360;28;20091;-66
2022/11/22 02:14:19;;;;;;;11.60;2.60;;;;;;;5.70;100.00;99134.56;5029092;28;20037;-66
2022/11/22 02:16:46;;;;;;;11.90;2.90;;;;;;;5.69;100.00;99135.38;5027696;28;20047;-66
2022/11/22 02:19:22;;;;;;;13.07;3.45;;;;;;;5.67;100.00;99137.94;5023950;28;20021;-66
2022/11/22 02:21:53;;;;;;;15.48;3.50;;;;;;;5.68;100.00;99141.44;5028352;28;20115;-66
2022/11/22 02:24:29;;;;;;;12.68;2.85;;;;;;;5.66;100.00;99146.56;5022597;28;20033;-66
2022/11/22 02:26:54;;;;;;;11.93;2.83;;;;;;;5.66;100.00;99136.22;5025555;28;20040;-66
2022/11/22 02:29:20;;;;;;;12.07;2.92;;;;;;;5.66;100.00;99140.50;5025600;28;20079;-66
2022/11/22 02:31:46;;;;;;;12.10;3.00;;;;;;;5.65;100.00;99141.34;5026992;28;20030;-67
2022/11/22 02:34:12;;;;;;;15.55;3.03;;;;;;;5.65;100.00;99147.41;5010745;28;20153;-66
2022/11/22 02:36:50;;;;;;;12.57;2.65;;;;;;;5.64;100.00;99145.66;5029308;28;20013;-66
2022/11/22 02:39:18;;;;;;;12.65;3.08;;;;;;;5.61;100.00;99145.63;5037950;28;20022;-66
2022/11/22 02:41:44;;;;;;;9.82;2.42;;;;;;;5.61;100.00;99147.34;5032509;28;20030;-66
2022/11/22 02:44:12;;;;;;;15.85;2.95;;;;;;;5.58;100.00;99142.97;5039512;28;20096;-66
2022/11/22 02:46:49;;;;;;;11.38;2.60;;;;;;;5.58;100.00;99145.56;5032349;28;20017;-66
2022/11/22 02:49:20;;;;;;;10.95;2.97;;;;;;;5.58;100.00;99150.75;5037724;28;20027;-66
2022/11/22 02:51:45;;;;;;;15.27;2.83;;;;;;;5.56;100.00;99144.66;5032035;28;20034;-66
2022/11/22 02:54:11;;;;;;;10.15;3.75;;;;;;;5.54;100.00;99154.97;5043510;28;20027;-66
2022/11/22 02:56:36;;;;;;;13.63;2.67;;;;;;;5.54;100.00;99156.69;5032883;28;20257;-66
2022/11/22 02:59:01;;;;;;;12.20;2.88;;;;;;;5.50;100.00;99149.72;5040463;28;20009;-66
2022/11/22 03:01:28;;;;;;;10.93;2.85;;;;;;;5.50;100.00;99158.34;5032461;28;20021;-66
2022/11/22 03:03:53;;;;;;;16.05;3.15;;;;;;;5.49;100.00;99160.91;5038629;28;20045;-66
2022/11/22 03:06:18;;;;;;;16.45;3.25;;;;;;;5.47;100.00;99154.84;5034915;28;20018;-66
2022/11/22 03:08:43;;;;;;;12.35;2.65;;;;;;;5.44;100.00;99153.09;5035180;28;20227;-66
2022/11/22 03:11:09;;;;;;;13.35;2.50;;;;;;;5.43;100.00;99155.63;5028788;28;20097;-66
2022/11/22 03:13:34;;;;;;;11.52;2.88;;;;;;;5.42;100.00;99153.88;5036920;28;20028;-66
2022/11/22 03:15:59;;;;;;;12.50;2.60;;;;;;;5.39;100.00;99165.06;5030226;28;20029;-66
2022/11/22 03:18:24;;;;;;;15.50;2.70;;;;;;;5.37;100.00;99167.63;5027686;28;20210;-66
2022/11/22 03:20:50;;;;;;;11.73;3.00;;;;;;;5.36;100.00;99171.03;5031461;28;20025;-66
2022/11/22 03:23:15;;;;;;;11.35;2.88;;;;;;;5.35;100.00;99173.59;5034655;28;20263;-66
2022/11/22 03:25:40;;;;;;;13.85;2.97;;;;;;;5.33;100.00;99183.91;5041472;28;20029;-66
2022/11/22 03:28:06;;;;;;;10.57;2.35;;;;;;;5.31;100.00;99176.97;5030714;28;20032;-69
2022/11/22 03:30:32;;;;;;;14.55;2.83;;;;;;;5.28;100.00;99174.34;5032168;28;20033;-70
2022/11/22 03:32:57;;;;;;;11.55;3.00;;;;;;;5.24;100.00;99170.81;5034730;28;20026;-69
2022/11/22 03:35:22;;;;;;;13.65;2.80;;;;;;;5.22;100.00;99172.50;5037018;28;20025;-69
2022/11/22 03:37:47;;;;;;;12.38;2.50;;;;;;;5.20;100.00;99179.38;5040269;28;20044;-70
2022/11/22 03:40:13;;;;;;;11.90;2.85;;;;;;;5.17;100.00;99179.28;5034455;28;20018;-70
2022/11/22 03:42:38;;;;;;;10.15;2.47;;;;;;;5.14;99.68;99179.22;5032272;28;20029;-69
2022/11/22 03:45:04;;;;;;;10.38;2.45;;;;;;;5.11;100.00;99174.00;5034051;28;20278;-69
2022/11/22 03:47:30;;;;;;;12.18;2.55;;;;;;;5.10;99.84;99180.00;5045749;28;20071;-69
2022/11/22 03:49:55;;;;;;;16.83;3.63;;;;;;;5.07;99.90;99186.00;5038871;28;20026;-69
2022/11/22 03:52:20;;;;;;;14.77;2.70;;;;;;;5.03;99.81;99181.63;5043911;28;20021;-69
2022/11/22 03:54:45;;;;;;;13.60;3.10;;;;;;;4.99;99.55;99188.44;5040032;28;20040;-70
2022/11/22 03:57:11;;;;;;;15.52;3.55;;;;;;;4.96;99.82;99183.22;5028783;28;20026;-68
2022/11/22 03:59:36;;;;;;;12.55;2.80;;;;;;;4.95;99.90;99180.59;5030759;28;20018;-69
2022/11/22 04:02:01;;;;;;;12.70;2.60;;;;;;;4.91;99.51;99190.00;5023592;28;20025;-69
2022/11/22 04:04:27;;;;;;;9.63;2.65;;;;;;;4.88;99.73;99193.38;5027453;28;20026;-70
2022/11/22 04:06:52;;;;;;;11.43;2.50;;;;;;;4.87;100.00;99188.19;5039897;28;20029;-69
2022/11/22 04:09:17;;;;;;;10.35;2.10;;;;;;;4.85;99.94;99185.59;5036190;28;20022;-69
2022/11/22 04:11:42;;;;;;;10.75;2.95;;;;;;;4.83;99.47;99176.06;5032203;28;20026;-69
2022/11/22 04:16:55;;;;;;;12.18;2.92;;;;;;;4.75;100.00;99185.38;5026987;28;20033;-69
2022/11/22 04:19:20;;;;;;;13.73;2.72;;;;;;;4.70;99.99;99196.47;5038332;28;20084;-69
2022/11/22 04:21:46;;;;;;;13.60;2.50;;;;;;;4.68;99.89;99205.03;5034601;28;20036;-69
2022/11/22 04:26:56;;;;;;;14.38;2.78;;;;;;;4.63;100.00;99215.22;5027519;28;20036;-69
2022/11/22 04:29:22;;;;;;;15.15;2.95;;;;;;;4.63;100.00;99222.09;5025795;28;20199;-68
2022/11/22 04:34:32;;;;;;;10.55;2.60;;;;;;;4.59;99.96;99205.72;5039108;28;20187;-69
2022/11/22 04:36:58;;;;;;;11.98;2.60;;;;;;;4.56;99.87;99204.75;5032968;28;20057;-69
2022/11/22 04:39:23;;;;;;;9.38;2.45;;;;;;;4.54;100.00;99212.47;5040235;28;20179;-69
2022/11/22 04:44:39;;;;;;;11.25;2.40;;;;;;;4.51;99.81;99213.25;5033381;28;20081;-69
2022/11/22 04:44:39;;;;;;;10.52;2.25;;;;;;;4.49;100.00;99208.91;5029472;28;20287;-70
2022/11/22 04:47:05;;;;;;;10.13;2.88;;;;;;;4.46;100.00;99217.47;5052442;28;20017;-69
2022/11/22 04:49:30;;;;;;;9.60;2.80;;;;;;;4.44;100.00;99216.53;5038652;28;20044;-69
2022/11/22 04:54:39;;;;;;;12.23;2.33;;;;;;;4.41;99.88;99215.63;5025551;28;20239;-69
2022/11/22 04:57:04;;;;;;;8.15;2.08;;;;;;;4.37;99.92;99219.81;5030379;28;20017;-66
2022/11/22 04:59:30;;;;;;;11.35;2.45;;;;;;;4.35;100.00;99213.78;5043581;28;20013;-66
2022/11/22 05:01:55;;;;;;;9.70;2.45;;;;;;;4.33;100.00;99218.00;5041088;28;20036;-66
2022/11/22 05:04:20;;;;;;;10.55;2.30;;;;;;;4.31;100.00;99228.28;5043542;28;20036;-66
2022/11/22 05:06:45;;;;;;;10.32;2.25;;;;;;;4.30;99.95;99229.16;5042058;28;20117;-66
2022/11/22 05:09:11;;;;;;;11.18;2.38;;;;;;;4.26;100.00;99227.34;5044525;28;20068;-66
2022/11/22 05:11:36;;;;;;;8.48;2.28;;;;;;;4.25;99.97;99235.91;5041914;28;20367;-66
2022/11/22 05:14:02;;;;;;;10.05;2.65;;;;;;;4.23;99.81;99229.84;5034423;28;20052;-66
2022/11/22 05:16:27;;;;;;;7.43;1.80;;;;;;;4.19;99.89;99230.59;5040612;28;20052;-66
2022/11/22 05:18:59;;;;;;;10.13;1.98;;;;;;;4.17;100.00;99233.16;5043237;28;20176;-66
2022/11/22 05:21:28;;;;;;;9.02;2.30;;;;;;;4.15;100.00;99231.38;5040917;28;20092;-66
2022/11/22 05:23:54;;;;;;;8.00;1.90;;;;;;;4.13;99.91;99230.47;5046134;28;20033;-66
2022/11/22 05:26:22;;;;;;;8.43;2.05;;;;;;;4.11;99.91;99226.97;5037067;28;20037;-69
2022/11/22 05:28:48;;;;;;;7.80;2.00;;;;;;;4.10;100.00;99220.06;5040724;28;20026;-70
2022/11/22 05:31:22;;;;;;;7.20;2.00;;;;;;;4.08;99.93;99226.91;5042400;28;20095;-69
2022/11/22 05:33:48;;;;;;;9.13;2.22;;;;;;;4.09;100.00;99220.91;5034120;28;20071;-69
2022/11/22 05:36:15;;;;;;;7.47;2.08;;;;;;;4.09;100.00;99223.50;5039660;28;20083;-69
2022/11/22 05:38:40;;;;;;;12.65;2.20;;;;;;;4.07;99.84;99214.84;5037681;28;20030;-69
2022/11/22 05:41:08;;;;;;;9.73;2.38;;;;;;;4.05;100.00;99219.97;5043426;28;20025;-69
2022/11/22 05:43:34;;;;;;;10.95;2.60;;;;;;;4.06;99.83;99220.84;5033865;28;20106;-69
2022/11/22 05:46:05;;;;;;;6.53;1.80;;;;;;;4.04;99.96;99225.09;5031431;28;20349;-69
2022/11/22 05:48:30;;;;;;;8.73;1.90;;;;;;;4.03;99.83;99226.81;5040539;28;20047;-69
2022/11/22 05:50:56;;;;;;;9.25;2.05;;;;;;;4.02;100.00;99224.19;5044577;28;20057;-69
2022/11/22 05:53:21;;;;;;;11.63;2.40;;;;;;;3.99;99.65;99225.84;5042305;28;20025;-69
2022/11/22 05:55:46;;;;;;;10.63;2.00;;;;;;;3.98;99.69;99229.28;5035573;28;20084;-69
2022/11/22 05:58:11;;;;;;;9.93;2.03;;;;;;;3.97;99.76;99222.38;5044884;28;20029;-70
2022/11/22 06:00:37;;;;;;;9.40;2.08;;;;;;;3.96;99.69;99217.19;5028312;28;20021;-69
2022/11/22 06:03:02;;;;;;;9.68;2.05;;;;;;;3.92;99.73;99217.94;5027806;28;20125;-69
2022/11/22 06:05:29;;;;;;;9.18;2.30;;;;;;;3.89;99.69;99216.16;5031940;28;20021;-70
2022/11/22 06:07:58;;;;;;;9.68;2.28;;;;;;;3.90;100.00;99222.19;5025072;28;20060;-70
2022/11/22 06:10:25;;;;;;;12.82;2.60;;;;;;;3.90;99.71;99224.78;5026520;28;20027;-69
2022/11/22 06:12:50;;;;;;;8.18;2.30;;;;;;;3.89;99.90;99216.16;5026350;28;20265;-69
2022/11/22 06:15:15;;;;;;;12.18;2.38;;;;;;;3.90;99.64;99224.78;5027226;28;20064;-69
2022/11/22 06:17:41;;;;;;;8.65;1.92;;;;;;;3.88;99.87;99219.59;5025241;28;20090;-70
2022/11/22 06:20:07;;;;;;;9.43;2.22;;;;;;;3.86;99.69;99225.53;5029506;28;20149;-69
2022/11/22 06:22:32;;;;;;;9.55;2.00;;;;;;;3.83;99.44;99226.31;5025465;28;20021;-69
2022/11/22 06:24:58;;;;;;;7.32;2.38;;;;;;;3.81;99.91;99226.28;5027672;28;20037;-69
2022/11/22 06:27:23;;;;;;;8.45;2.08;;;;;;;3.82;100.00;99224.56;5025763;28;20180;-69
2022/11/22 06:29:48;;;;;;;8.68;2.10;;;;;;;3.80;99.94;99241.72;5045217;28;20028;-69
2022/11/22 06:32:13;;;;;;;7.45;2.28;;;;;;;3.78;99.68;99236.53;5031458;28;20065;-69
2022/11/22 06:34:39;;;;;;;6.57;2.13;;;;;;;3.79;100.00;99233.09;5040528;28;20024;-69
2022/11/22 06:37:04;;;;;;;9.45;2.33;;;;;;;3.78;99.91;99228.78;5031647;28;20112;-69
2022/11/22 06:39:29;;;;;;;8.15;2.47;;;;;;;3.77;99.78;99236.47;5042110;28;20064;-70
2022/11/22 06:41:54;;;;;;;9.23;2.60;;;;;;;3.76;99.86;99234.72;5031118;28;20033;-69
2022/11/22 06:44:20;;;;;;;9.05;2.13;;;;;;;3.76;99.85;99240.75;5033355;28;20043;-69
2022/11/22 06:46:45;;;;;;;11.45;2.75;;;;;;;3.75;99.97;99243.28;5036291;28;20018;-68
2022/11/22 06:49:10;;;;;;;7.75;2.22;;;;;;;3.75;99.89;99249.31;5038936;28;21058;-68
2022/11/22 06:51:35;;;;;;;8.73;2.38;;;;;;;3.75;100.00;99243.28;5036592;28;20045;-69
2022/11/22 06:54:01;;;;;;;10.80;2.10;;;;;;;3.76;100.00;99250.19;5038258;28;20088;-69
2022/11/22 06:56:29;;;;;;;12.95;2.58;;;;;;;3.77;100.00;99257.94;5032283;28;20025;-69
2022/11/22 06:58:55;;;;;;;9.50;2.50;;;;;;;3.78;100.00;99253.66;5040803;28;20025;-70
2022/11/22 07:01:23;;;;;;;10.18;2.42;;;;;;;3.78;100.00;99259.69;5041176;28;20028;-69
2022/11/22 07:03:49;;;;;;;8.25;2.30;;;;;;;3.80;100.00;99267.47;5037184;28;20021;-69
2022/11/22 07:06:16;;;;;;;8.15;2.40;;;;;;;3.81;100.00;99264.94;5040634;28;20063;-70
2022/11/22 07:08:42;;;;;;;11.15;2.50;;;;;;;3.83;100.00;99275.28;5029331;28;20025;-69
2022/11/22 07:11:10;;;;;;;6.90;2.50;;;;;;;3.85;100.00;99277.88;5031321;28;20049;-69
2022/11/22 07:13:36;;;;;;;7.28;2.65;;;;;;;3.87;100.00;99274.53;5036816;28;20049;-69
2022/11/22 07:16:04;;;;;;;8.63;2.53;;;;;;;3.90;100.00;99274.59;5039272;28;20029;-69
2022/11/22 07:18:30;;;;;;;13.00;3.20;;;;;;;3.93;100.00;99274.66;5027257;28;20033;-68
2022/11/22 07:21:08;;;;;;;8.30;2.05;;;;;;;3.96;100.00;99267.00;5037112;28;20092;-69
2022/11/22 07:23:33;;;;;;;8.82;3.33;;;;;;;3.99;100.00;99274.81;5038985;28;20256;-69
2022/11/22 07:25:58;;;;;;;9.98;2.15;;;;;;;4.00;100.00;99273.97;5037925;28;20045;-69
2022/11/22 07:28:25;;;;;;;8.82;3.13;;;;;;;4.03;100.00;99280.03;5031604;28;20201;-66
2022/11/22 07:30:51;;;;;;;6.63;2.33;;;;;;;4.04;100.00;99279.19;5034469;28;20187;-66
2022/11/22 07:33:16;;;;;;;8.95;2.53;;;;;;;4.06;100.00;99277.56;5041863;28;20322;-66
2022/11/22 07:35:41;;;;;;;9.50;2.40;;;;;;;4.08;100.00;99281.03;5040462;28;20100;-67
2022/11/22 07:38:07;;;;;;;7.07;2.33;;;;;;;4.09;99.88;99281.06;5038433;28;20021;-66
2022/11/22 07:40:32;;;;;;;9.63;2.35;;;;;;;4.11;99.77;99281.09;5035881;28;20092;-66
2022/11/22 07:42:58;;;;;;;10.30;2.25;;;;;;;4.12;100.00;99286.28;5029633;28;20037;-66
2022/11/22 07:45:23;;;;;;;6.68;2.20;;;;;;;4.13;99.59;99282.88;5027553;28;20014;-66
2022/11/22 07:47:48;;;;;;;7.10;2.00;;;;;;;4.15;99.90;99275.19;5030508;28;20031;-66
2022/11/22 07:50:14;;;;;;;8.43;2.25;;;;;;;4.17;99.68;99278.66;5041418;28;20108;-66
2022/11/22 07:52:39;;;;;;;8.27;2.75;;;;;;;4.18;100.00;99281.28;5039184;28;20176;-66
2022/11/22 07:55:05;;;;;;;10.20;2.30;;;;;;;4.20;99.66;99277.88;5034788;28;20284;-66
2022/11/22 07:57:31;;;;;;;7.30;2.30;;;;;;;4.21;99.87;99271.88;5035925;28;20036;-69
2022/11/22 07:59:56;;;;;;;6.72;2.38;;;;;;;4.22;99.63;99283.94;5036100;28;20029;-69
2022/11/22 08:02:22;;;;;;;8.02;2.10;;;;;;;4.23;99.92;99276.25;5026632;28;20172;-68
2022/11/22 08:04:48;;;;;;;8.35;2.10;;;;;;;4.25;99.45;99277.16;5032192;28;20026;-69
2022/11/22 08:07:13;;;;;;;7.03;2.65;;;;;;;4.28;99.59;99282.38;5043287;28;20023;-69
2022/11/22 08:09:38;;;;;;;6.25;2.20;;;;;;;4.32;99.31;99280.75;5025616;28;20021;-69
2022/11/22 08:12:04;;;;;;;9.75;2.22;;;;;;;4.34;99.20;99282.53;5042813;28;20021;-69
2022/11/22 08:14:29;;;;;;;8.85;2.40;;;;;;;4.38;99.09;99287.75;5042354;28;20219;-68
2022/11/22 08:16:54;;;;;;;7.75;2.03;;;;;;;4.40;99.29;99286.06;5039751;28;20014;-68
2022/11/22 08:19:20;;;;;;;7.63;2.08;;;;;;;4.42;99.19;99289.53;5027623;28;20025;-69
2022/11/22 08:21:48;;;;;;;7.30;2.15;;;;;;;4.47;99.12;99298.28;5034436;28;20096;-69
2022/11/22 08:24:14;;;;;;;9.40;2.55;;;;;;;4.48;99.24;99289.72;5035214;28;20025;-69
2022/11/22 08:26:39;;;;;;;8.38;2.20;;;;;;;4.50;99.00;99291.50;5032784;28;20032;-69
2022/11/22 08:29:06;;;;;;;7.07;1.90;;;;;;;4.53;98.63;99294.13;5027571;28;20025;-69
2022/11/22 08:31:32;;;;;;;7.03;2.15;;;;;;;4.55;98.69;99291.59;5032332;28;20288;-70
2022/11/22 08:33:57;;;;;;;9.73;2.80;;;;;;;4.59;98.45;99295.09;5030668;28;20021;-68
2022/11/22 08:36:23;;;;;;;12.32;2.70;;;;;;;4.62;98.66;99305.47;5036209;28;20063;-70
2022/11/22 08:38:48;;;;;;;8.55;2.00;;;;;;;4.62;98.73;99298.63;5047163;28;20085;-69
2022/11/22 08:41:13;;;;;;;6.20;1.92;;;;;;;4.63;98.65;99297.78;5043786;28;20256;-70
2022/11/22 08:43:39;;;;;;;8.23;2.08;;;;;;;4.66;98.14;99299.56;5036002;28;20311;-69
2022/11/22 08:46:05;;;;;;;6.53;1.90;;;;;;;4.69;98.39;99305.69;5043142;28;20017;-70
2022/11/22 08:48:32;;;;;;;6.50;1.80;;;;;;;4.70;98.56;99304.81;5028224;28;20021;-70
2022/11/22 08:51:00;;;;;;;7.60;1.90;;;;;;;4.74;98.46;99313.50;5027852;28;20032;-70
2022/11/22 08:53:26;;;;;;;5.32;1.55;;;;;;;4.77;98.04;99307.56;5029311;28;20021;-69
2022/11/22 08:55:53;;;;;;;8.00;2.10;;;;;;;4.81;98.03;99305.06;5041772;28;20032;-69
2022/11/22 08:58:18;;;;;;;10.95;1.90;;;;;;;4.84;97.40;99304.28;5039645;28;20100;-69
2022/11/22 09:00:44;;;;;;;7.95;1.98;;;;;;;4.88;98.02;99294.03;5034964;28;20056;-69
2022/11/22 09:03:09;;;;;;;10.43;2.25;;;;;;;4.91;97.46;99301.00;5030373;28;20275;-69
2022/11/22 09:05:35;;;;;;;8.88;2.22;;;;;;;4.96;97.43;99307.09;5035446;28;20639;-69
2022/11/22 09:08:00;;;;;;;7.43;2.05;;;;;;;4.97;97.84;99301.09;5026155;28;20025;-69
2022/11/22 09:10:25;;;;;;;6.80;2.20;;;;;;;4.99;97.85;99298.56;5038462;28;20176;-69
2022/11/22 09:12:51;;;;;;;7.07;2.05;;;;;;;5.02;98.06;99309.81;5045826;28;20025;-69
2022/11/22 09:15:16;;;;;;;6.97;2.10;;;;;;;5.04;98.09;99302.13;5044749;28;20014;-69
2022/11/22 09:17:42;;;;;;;7.88;1.98;;;;;;;5.08;98.42;99313.38;5056039;28;20044;-69
2022/11/22 09:20:08;;;;;;;8.35;2.25;;;;;;;5.09;98.04;99313.41;5032222;28;20089;-69
2022/11/22 09:22:34;;;;;;;9.10;2.30;;;;;;;5.11;97.42;99316.88;5020098;28;20021;-71
2022/11/22 09:24:59;;;;;;;6.10;2.08;;;;;;;5.13;97.78;99306.59;5043768;28;20056;-68
2022/11/22 09:27:25;;;;;;;10.55;2.50;;;;;;;5.16;97.18;99306.66;5040180;28;20064;-69
2022/11/22 09:29:51;;;;;;;7.95;2.40;;;;;;;5.20;97.74;99305.88;5045284;28;20169;-69
2022/11/22 09:32:16;;;;;;;7.88;2.00;;;;;;;5.23;97.72;99311.97;5046626;28;20095;-69
2022/11/22 09:34:41;;;;;;;9.50;2.55;;;;;;;5.26;97.64;99318.91;5045171;28;20021;-71
2022/11/22 09:37:06;;;;;;;7.10;1.85;;;;;;;5.31;97.45;99314.69;5037780;28;20276;-71
2022/11/22 09:39:32;;;;;;;7.07;1.90;;;;;;;5.34;97.37;99314.75;5025335;28;20129;-71
2022/11/22 09:42:09;;;;;;;7.55;1.98;;;;;;;5.40;97.26;99308.84;5041034;28;20021;-69
2022/11/22 09:44:59;;;;;;;8.07;2.20;;;;;;;5.43;96.78;99311.50;5039224;28;20096;-68
2022/11/22 09:47:34;;;;;;;5.93;2.05;;;;;;;5.48;97.05;99309.88;5031043;28;20036;-69
2022/11/22 09:50:38;;;;;;;7.57;2.13;;;;;;;5.51;96.53;99309.91;5034601;28;20025;-70
2022/11/22 09:53:13;;;;;;;6.10;1.77;;;;;;;5.57;96.24;99309.16;5014103;28;20192;-70
2022/11/22 09:55:43;;;;;;;5.47;2.15;;;;;;;5.59;95.81;99307.50;5029010;28;20037;-70
2022/11/22 09:58:26;;;;;;;7.45;2.45;;;;;;;5.61;95.33;99308.38;5038252;28;20282;-69
2022/11/22 10:00:56;;;;;;;5.70;1.75;;;;;;;5.64;94.89;99316.19;5040490;28;20017;-68
2022/11/22 10:03:31;;;;;;;5.88;1.80;;;;;;;5.68;95.80;99323.16;5031333;28;20049;-68
2022/11/22 10:06:04;;;;;;;6.93;1.70;;;;;;;5.66;94.84;99324.88;5007700;28;20030;-68
2022/11/22 10:08:32;;;;;;;4.97;1.70;;;;;;;5.67;94.85;99324.00;5033201;28;20049;-69
2022/11/22 10:10:59;;;;;;;6.80;1.92;;;;;;;5.67;94.61;99321.41;5041334;28;20265;-68
2022/11/22 10:13:36;;;;;;;5.40;1.65;;;;;;;5.66;95.11;99318.81;5039137;28;20045;-69
2022/11/22 10:16:13;;;;;;;4.97;1.55;;;;;;;5.66;95.21;99324.88;5044099;28;20326;-69
2022/11/22 10:19:00;;;;;;;6.75;2.20;;;;;;;5.65;95.06;99317.94;5039535;28;20022;-68
2022/11/22 10:21:26;;;;;;;7.38;2.72;;;;;;;5.67;95.73;99316.25;5038229;28;20194;-68
2022/11/22 10:23:51;;;;;;;4.88;1.70;;;;;;;5.66;95.41;99313.63;5039786;28;20272;-68
2022/11/22 10:26:31;;;;;;;5.30;1.85;;;;;;;5.66;95.40;99311.94;5028384;28;20033;-68
2022/11/22 10:29:15;;;;;;;9.20;1.98;;;;;;;5.68;95.98;99307.66;5045515;28;20048;-68
2022/11/22 10:32:01;;;;;;;5.68;1.48;;;;;;;5.69;96.05;99311.09;5040288;28;20032;-68
2022/11/22 10:34:51;;;;;;;5.28;1.80;;;;;;;5.68;96.18;99307.66;5034731;28;20063;-68
2022/11/22 10:37:29;;;;;;;5.18;1.85;;;;;;;5.67;96.71;99299.88;5029514;28;20164;-68
2022/11/22 10:40:12;;;;;;;6.13;1.80;;;;;;;5.67;96.40;99302.47;5031054;28;20063;-69
2022/11/22 10:43:11;;;;;;;4.20;2.00;;;;;;;5.70;96.43;99299.94;5041451;28;20025;-68
2022/11/22 10:45:43;;;;;;;6.20;2.30;;;;;;;5.71;97.03;99294.78;5036266;28;20074;-68
2022/11/22 10:48:52;;;;;;;6.75;2.30;;;;;;;5.75;97.13;99294.00;5030150;28;20081;-69
2022/11/22 10:51:31;;;;;;;8.38;2.78;;;;;;;5.79;96.09;99289.75;4997399;28;20029;-69
2022/11/22 10:54:02;;;;;;;6.40;2.15;;;;;;;5.82;96.27;99296.69;5040536;28;20188;-69
2022/11/22 10:56:48;;;;;;;4.72;2.15;;;;;;;5.86;95.67;99290.75;5037835;28;20017;-64
2022/11/22 10:59:14;;;;;;;5.57;2.22;;;;;;;5.90;95.11;99298.56;5032587;28;20060;-64
2022/11/22 11:01:57;;;;;;;6.25;2.38;;;;;;;5.92;94.91;99285.66;5042728;28;20049;-64
2022/11/22 11:04:26;;;;;;;6.35;2.47;;;;;;;5.95;94.98;99285.72;5037068;28;20029;-64
2022/11/22 11:06:56;;;;;;;3.78;1.88;;;;;;;5.98;95.21;99282.34;5024835;28;20064;-64
2022/11/22 11:09:30;;;;;;;6.80;2.10;;;;;;;6.01;94.68;99279.81;5026869;28;20037;-64
2022/11/22 11:11:58;;;;;;;4.55;1.50;;;;;;;6.01;94.04;99272.06;5035442;28;20175;-64
2022/11/22 11:14:35;;;;;;;3.38;1.70;;;;;;;6.03;94.23;99267.81;5033032;28;20033;-64
2022/11/22 11:17:01;;;;;;;4.25;1.65;;;;;;;6.05;94.52;99269.56;5044652;28;20029;-63
2022/11/22 11:19:31;;;;;;;4.85;1.48;;;;;;;6.05;94.11;99261.81;5033078;28;20081;-64
2022/11/22 11:22:08;;;;;;;7.43;1.60;;;;;;;6.09;94.67;99260.13;5043959;28;20024;-64
2022/11/22 11:24:37;;;;;;;3.20;1.63;;;;;;;6.11;93.41;99263.59;5042777;28;20090;-64
2022/11/22 11:27:03;;;;;;;4.72;1.80;;;;;;;6.12;92.73;99267.06;5038962;28;20013;-68
2022/11/22 11:29:38;;;;;;;8.23;2.20;;;;;;;6.14;92.35;99255.03;5040986;28;20029;-68
2022/11/22 11:32:09;;;;;;;5.65;1.45;;;;;;;6.15;93.25;99251.59;5033518;28;20060;-68
2022/11/22 11:34:37;;;;;;;4.35;1.40;;;;;;;6.17;92.47;99249.91;5044363;28;20017;-68
2022/11/22 11:37:04;;;;;;;4.97;1.52;;;;;;;6.19;92.39;99248.22;5044181;28;20122;-67
2022/11/22 11:39:34;;;;;;;4.15;1.10;;;;;;;6.20;92.19;99247.34;5044283;28;20257;-68
2022/11/22 11:42:00;;;;;;;3.17;1.20;;;;;;;6.21;92.10;99243.94;5044152;28;20013;-68
2022/11/22 11:44:35;;;;;;;4.22;1.40;;;;;;;6.24;91.71;99241.38;5037319;28;20341;-68
2022/11/22 11:47:02;;;;;;;4.00;1.50;;;;;;;6.26;91.61;99239.72;5044203;28;20053;-68